createdAt,value
2018-08-10T00:01:10.415Z,67.67
2018-08-10T00:03:39.818Z,66.37
2018-08-10T00:06:09.272Z,66.68
2018-08-10T00:08:38.674Z,66.35
2018-08-10T00:11:08.445Z,65.23
2018-08-10T00:13:37.857Z,65.21
2018-08-10T00:16:07.271Z,65.54
2018-08-10T00:18:36.671Z,65.39
2018-08-10T00:21:06.100Z,64.59
2018-08-10T00:23:35.560Z,64.18
2018-08-10T00:26:04.988Z,64.41
2018-08-10T00:28:34.379Z,63.59
2018-08-10T00:31:03.820Z,62.99
2018-08-10T00:33:33.564Z,62.94
2018-08-10T00:36:02.970Z,62.74
2018-08-10T00:38:32.368Z,63.55
2018-08-10T00:41:01.819Z,63.62
2018-08-10T00:43:31.246Z,63.19
2018-08-10T00:46:00.685Z,62.87
2018-08-10T00:48:30.084Z,62.22
2018-08-10T00:50:59.532Z,61.47
2018-08-10T00:53:28.970Z,62.16
2018-08-10T00:55:58.358Z,62.46
2018-08-10T00:58:27.768Z,61.79
2018-08-10T01:00:57.160Z,61.99
2018-08-10T01:03:26.572Z,61.83
2018-08-10T01:05:55.993Z,61.31
2018-08-10T01:08:25.409Z,61.30
2018-08-10T01:10:54.820Z,61.32
2018-08-10T01:13:24.295Z,61.74
2018-08-10T01:15:53.614Z,61.67
2018-08-10T01:18:23.017Z,61.98
2018-08-10T01:20:52.466Z,61.66
2018-08-10T01:23:21.866Z,62.91
2018-08-10T01:25:51.277Z,62.42
2018-08-10T01:28:20.730Z,61.05
2018-08-10T01:30:50.042Z,61.57
2018-08-10T01:33:19.411Z,61.70
2018-08-10T01:35:48.787Z,62.34
2018-08-10T01:38:18.114Z,62.10
2018-08-10T01:40:47.463Z,63.01
2018-08-10T01:43:16.799Z,62.54
2018-08-10T01:45:46.161Z,63.78
2018-08-10T01:48:15.529Z,64.44
2018-08-10T01:50:44.864Z,64.43
2018-08-10T01:53:14.202Z,64.29
2018-08-10T01:55:43.569Z,64.10
2018-08-10T01:58:12.966Z,64.21
2018-08-10T02:00:42.302Z,64.18
2018-08-10T02:03:11.643Z,63.67
2018-08-10T02:05:41.013Z,64.49
2018-08-10T02:08:10.336Z,62.71
2018-08-10T02:10:39.670Z,63.17
2018-08-10T02:13:09.007Z,62.10
2018-08-10T02:15:38.360Z,63.36
2018-08-10T02:18:08.952Z,62.46
2018-08-10T02:20:38.312Z,62.78
2018-08-10T02:23:07.648Z,62.77
2018-08-10T02:25:37.019Z,63.19
2018-08-10T02:28:06.383Z,64.02
2018-08-10T02:30:35.748Z,63.31
2018-08-10T02:33:05.159Z,64.57
2018-08-10T02:35:34.512Z,63.40
2018-08-10T02:38:03.888Z,63.81
2018-08-10T02:40:33.276Z,63.71
2018-08-10T02:43:02.656Z,64.56
2018-08-10T02:45:31.999Z,64.19
2018-08-10T02:48:01.360Z,63.77
2018-08-10T02:50:30.727Z,63.92
2018-08-10T02:53:00.092Z,63.62
2018-08-10T02:55:29.462Z,63.67
2018-08-10T02:57:58.832Z,63.94
2018-08-10T03:00:28.172Z,64.34
2018-08-10T03:02:57.536Z,65.22
2018-08-10T03:05:26.918Z,64.55
2018-08-10T03:07:56.261Z,65.45
2018-08-10T03:10:25.619Z,65.74
2018-08-10T03:12:54.985Z,65.92
2018-08-10T03:15:24.333Z,65.51
2018-08-10T03:17:53.696Z,66.08
2018-08-10T03:20:23.054Z,66.72
2018-08-10T03:22:52.412Z,66.38
2018-08-10T03:25:21.752Z,66.99
2018-08-10T03:27:51.127Z,65.98
2018-08-10T03:30:20.483Z,66.15
2018-08-10T03:32:49.886Z,66.44
2018-08-10T03:35:25.552Z,65.02
2018-08-10T03:37:54.912Z,66.20
2018-08-10T03:40:24.268Z,66.50
2018-08-10T03:42:53.635Z,66.24
2018-08-10T03:45:23.003Z,65.92
2018-08-10T03:47:52.355Z,67.05
2018-08-10T03:50:21.712Z,65.56
2018-08-10T03:52:51.090Z,64.81
2018-08-10T03:55:20.440Z,65.59
2018-08-10T03:57:49.818Z,64.94
2018-08-10T04:00:19.191Z,65.66
2018-08-10T04:02:48.544Z,64.98
2018-08-10T04:05:17.901Z,67.41
2018-08-10T04:07:47.284Z,68.18
2018-08-10T04:10:16.641Z,67.63
2018-08-10T04:12:46.008Z,67.14
2018-08-10T04:15:15.361Z,67.08
2018-08-10T04:17:44.725Z,67.63
2018-08-10T04:20:14.097Z,67.39
2018-08-10T04:22:43.445Z,66.83
2018-08-10T04:25:12.800Z,67.85
2018-08-10T04:27:42.185Z,67.87
2018-08-10T04:30:12.076Z,68.61
2018-08-10T04:32:41.439Z,68.17
2018-08-10T04:35:11.075Z,68.40
2018-08-10T04:37:40.440Z,68.40
2018-08-10T04:40:11.584Z,67.83
2018-08-10T04:42:41.039Z,67.46
2018-08-10T04:45:10.488Z,68.50
2018-08-10T04:47:45.020Z,67.39
2018-08-10T04:50:14.401Z,68.77
2018-08-10T04:52:43.776Z,68.34
2018-08-10T04:55:13.582Z,69.50
2018-08-10T04:57:42.924Z,68.71
2018-08-10T05:00:14.223Z,68.57
2018-08-10T05:02:43.584Z,67.98
2018-08-10T05:05:12.963Z,69.17
2018-08-10T05:07:43.099Z,68.60
2018-08-10T05:10:12.461Z,67.87
2018-08-10T05:12:42.048Z,68.52
2018-08-10T05:15:12.108Z,69.12
2018-08-10T05:17:41.451Z,69.19
2018-08-10T05:20:11.697Z,69.22
2018-08-10T05:22:41.902Z,69.99
2018-08-10T05:25:11.270Z,69.97
2018-08-10T05:27:40.622Z,69.15
2018-08-10T05:30:10.936Z,69.11
2018-08-10T05:32:40.651Z,69.42
2018-08-10T05:35:10.673Z,69.68
2018-08-10T05:37:40.099Z,69.55
2018-08-10T05:40:10.488Z,68.47
2018-08-10T05:42:39.841Z,70.04
2018-08-10T05:45:09.505Z,70.04
2018-08-10T05:47:38.879Z,69.51
2018-08-10T05:50:09.037Z,69.34
2018-08-10T05:52:38.443Z,69.30
2018-08-10T05:55:08.141Z,69.54
2018-08-10T05:57:37.687Z,69.64
2018-08-10T06:00:08.069Z,69.35
2018-08-10T06:02:37.436Z,69.54
2018-08-10T06:05:07.080Z,69.42
2018-08-10T06:07:36.772Z,69.16
2018-08-10T06:10:08.302Z,68.38
2018-08-10T06:12:37.678Z,68.62
2018-08-10T06:15:09.205Z,68.79
2018-08-10T06:17:38.565Z,67.99
2018-08-10T06:20:10.503Z,67.74
2018-08-10T06:22:39.905Z,68.07
2018-08-10T06:25:09.620Z,68.16
2018-08-10T06:27:38.962Z,69.37
2018-08-10T06:30:11.548Z,68.65
2018-08-10T06:32:41.154Z,69.09
2018-08-10T06:35:10.541Z,68.47
2018-08-10T06:37:39.891Z,68.93
2018-08-10T06:40:09.257Z,68.23
2018-08-10T06:42:38.620Z,68.31
2018-08-10T06:45:08.248Z,67.94
2018-08-10T06:47:37.880Z,67.81
2018-08-10T06:50:07.735Z,67.11
2018-08-10T06:52:37.047Z,68.21
2018-08-10T06:55:06.412Z,68.48
2018-08-10T06:57:36.204Z,67.77
2018-08-10T07:00:07.532Z,68.80
2018-08-10T07:02:36.925Z,68.84
2018-08-10T07:05:07.027Z,67.78
2018-08-10T07:07:36.517Z,67.20
2018-08-10T07:10:07.400Z,65.88
2018-08-10T07:12:36.748Z,65.74
2018-08-10T07:15:06.290Z,66.35
2018-08-10T07:17:35.670Z,65.87
2018-08-10T07:20:05.717Z,65.88
2018-08-10T07:22:35.089Z,65.01
2018-08-10T07:25:04.763Z,63.96
2018-08-10T07:27:34.188Z,62.72
2018-08-10T07:30:03.622Z,62.85
2018-08-10T07:32:32.978Z,62.66
2018-08-10T07:35:02.323Z,62.67
2018-08-10T07:37:31.688Z,62.04
2018-08-10T07:40:01.065Z,62.80
2018-08-10T07:42:30.963Z,62.73
2018-08-10T07:45:00.326Z,62.16
2018-08-10T07:47:29.680Z,61.53
2018-08-10T07:49:59.009Z,62.03
2018-08-10T07:52:28.368Z,62.59
2018-08-10T07:54:57.717Z,62.32
2018-08-10T07:57:27.093Z,61.04
2018-08-10T07:59:56.449Z,61.11
2018-08-10T08:02:25.841Z,59.99
2018-08-10T08:04:55.208Z,59.80
2018-08-10T08:07:24.571Z,60.38
2018-08-10T08:09:53.936Z,59.02
2018-08-10T08:12:23.316Z,60.59
2018-08-10T08:14:52.659Z,59.61
2018-08-10T08:17:22.033Z,58.46
2018-08-10T08:19:51.422Z,58.30
2018-08-10T08:22:21.806Z,57.28
2018-08-10T08:24:51.219Z,57.70
2018-08-10T08:27:20.679Z,57.28
2018-08-10T08:29:50.044Z,57.26
2018-08-10T08:32:19.455Z,57.50
2018-08-10T08:34:48.833Z,56.29
2018-08-10T08:37:18.221Z,56.70
2018-08-10T08:40:30.279Z,55.58
2018-08-10T08:42:59.657Z,54.08
2018-08-10T08:45:44.459Z,54.43
2018-08-10T08:48:13.715Z,54.08
2018-08-10T08:50:46.459Z,54.77
2018-08-10T08:53:15.852Z,55.88
2018-08-10T08:55:52.445Z,56.43
2018-08-10T08:58:22.252Z,54.84
2018-08-10T09:00:51.651Z,53.07
2018-08-10T09:03:38.576Z,54.74
2018-08-10T09:06:08.305Z,54.07
2018-08-10T09:08:37.668Z,54.27
2018-08-10T09:11:08.408Z,53.37
2018-08-10T09:14:49.903Z,52.10
2018-08-10T09:17:19.357Z,51.45
2018-08-10T09:19:48.660Z,50.52
2018-08-10T09:22:18.040Z,51.77
2018-08-10T09:24:47.433Z,50.70
2018-08-10T09:27:16.793Z,50.51
2018-08-10T09:29:46.936Z,51.24
2018-08-10T09:32:16.315Z,50.79
2018-08-10T09:34:45.672Z,50.95
2018-08-10T09:37:15.058Z,49.62
2018-08-10T09:39:44.433Z,49.45
2018-08-10T09:42:13.850Z,49.57
2018-08-10T09:44:43.187Z,47.57
2018-08-10T09:47:12.536Z,48.07
2018-08-10T09:49:49.246Z,46.78
2018-08-10T09:52:18.629Z,48.32
2018-08-10T09:55:51.666Z,47.76
2018-08-10T09:58:21.053Z,48.97
2018-08-10T10:00:56.467Z,49.28
2018-08-10T10:03:26.490Z,48.09
2018-08-10T10:05:57.206Z,49.12
2018-08-10T10:08:27.009Z,49.30
2018-08-10T10:10:56.401Z,47.25
2018-08-10T10:13:25.761Z,45.21
2018-08-10T10:15:55.119Z,46.58
2018-08-10T10:18:24.489Z,45.37
2018-08-10T10:20:53.910Z,44.59
2018-08-10T10:23:23.209Z,45.57
2018-08-10T10:25:52.570Z,45.45
2018-08-10T10:28:21.922Z,43.78
2018-08-10T10:30:51.318Z,45.50
2018-08-10T10:33:20.674Z,45.62
2018-08-10T10:35:50.051Z,44.75
2018-08-10T10:38:19.405Z,43.35
2018-08-10T10:40:48.774Z,43.53
2018-08-10T10:43:18.121Z,43.12
2018-08-10T10:45:47.490Z,45.02
2018-08-10T10:48:16.853Z,44.68
2018-08-10T10:50:46.276Z,44.24
2018-08-10T10:53:15.603Z,42.45
2018-08-10T10:55:44.964Z,42.78
2018-08-10T10:58:14.303Z,42.13
2018-08-10T11:00:43.669Z,42.66
2018-08-10T11:03:13.009Z,41.61
2018-08-10T11:05:42.385Z,41.51
2018-08-10T11:08:11.792Z,42.02
2018-08-10T11:10:41.167Z,41.54
2018-08-10T11:13:10.543Z,41.43
2018-08-10T11:15:39.913Z,43.05
2018-08-10T11:18:09.526Z,43.16
2018-08-10T11:20:38.882Z,42.98
2018-08-10T11:23:08.270Z,42.32
2018-08-10T11:25:37.746Z,42.43
2018-08-10T11:28:07.084Z,42.61
2018-08-10T11:30:36.441Z,41.91
2018-08-10T11:33:05.825Z,40.69
2018-08-10T11:35:35.178Z,41.27
2018-08-10T11:38:04.542Z,41.21
2018-08-10T11:40:33.913Z,41.70
2018-08-10T11:43:03.277Z,41.42
2018-08-10T11:45:32.656Z,40.29
2018-08-10T11:48:02.020Z,40.16
2018-08-10T11:50:31.372Z,40.84
2018-08-10T11:53:00.750Z,40.91
2018-08-10T11:55:30.110Z,42.02
2018-08-10T11:57:59.468Z,40.56
2018-08-10T12:00:28.821Z,40.12
2018-08-10T12:02:58.189Z,40.66
2018-08-10T12:05:27.525Z,40.32
2018-08-10T12:07:56.884Z,40.33
2018-08-10T12:10:26.309Z,41.07
2018-08-10T12:12:55.702Z,41.06
2018-08-10T12:15:25.025Z,41.09
2018-08-10T12:17:54.385Z,38.90
2018-08-10T12:20:23.740Z,38.90
2018-08-10T12:22:53.104Z,39.04
2018-08-10T12:25:22.469Z,38.80
2018-08-10T12:27:51.850Z,40.08
2018-08-10T12:30:21.224Z,39.94
2018-08-10T12:32:50.568Z,38.97
2018-08-10T12:35:19.921Z,38.80
2018-08-10T12:37:49.267Z,38.51
2018-08-10T12:40:18.616Z,37.99
2018-08-10T12:42:47.984Z,37.91
2018-08-10T12:45:17.332Z,37.22
2018-08-10T12:47:46.798Z,37.06
2018-08-10T12:50:16.039Z,36.10
2018-08-10T12:52:45.382Z,36.66
2018-08-10T12:55:14.747Z,35.79
2018-08-10T12:57:44.100Z,36.16
2018-08-10T13:00:13.501Z,36.45
2018-08-10T13:02:43.285Z,36.99
2018-08-10T13:05:12.599Z,37.18
2018-08-10T13:07:41.928Z,37.11
2018-08-10T13:10:12.358Z,35.57
2018-08-10T13:12:41.719Z,35.21
2018-08-10T13:15:12.627Z,35.08
2018-08-10T13:17:41.987Z,35.61
2018-08-10T13:20:13.575Z,34.78
2018-08-10T13:22:43.140Z,35.18
2018-08-10T13:25:12.571Z,36.02
2018-08-10T13:27:41.922Z,36.36
2018-08-10T13:30:12.496Z,37.00
2018-08-10T13:32:41.849Z,36.52
2018-08-10T13:35:11.249Z,35.88
2018-08-10T13:37:40.608Z,35.74
2018-08-10T13:40:09.966Z,35.21
2018-08-10T13:42:39.297Z,35.83
2018-08-10T13:45:12.137Z,36.09
2018-08-10T13:47:41.785Z,37.16
2018-08-10T13:50:14.256Z,35.86
2018-08-10T13:52:43.698Z,35.56
2018-08-10T13:55:17.760Z,32.21
2018-08-10T13:57:48.092Z,31.65
2018-08-10T14:00:22.832Z,31.85
2018-08-10T14:02:54.272Z,31.66
2018-08-10T14:05:24.400Z,30.98
2018-08-10T14:07:54.401Z,29.73
2018-08-10T14:10:23.780Z,29.24
2018-08-10T14:12:53.134Z,30.48
2018-08-10T14:15:22.491Z,31.29
2018-08-10T14:17:51.831Z,31.60
2018-08-10T14:20:21.193Z,31.33
2018-08-10T14:22:50.535Z,31.69
2018-08-10T14:25:19.893Z,31.65
2018-08-10T14:27:49.269Z,32.63
2018-08-10T14:30:18.636Z,30.81
2018-08-10T14:32:47.985Z,31.18
2018-08-10T14:35:17.377Z,32.06
2018-08-10T14:37:46.723Z,32.22
2018-08-10T14:40:16.112Z,32.09
2018-08-10T14:42:45.472Z,31.69
2018-08-10T14:45:15.959Z,31.18
2018-08-10T14:47:45.420Z,32.63
2018-08-10T14:50:15.471Z,32.53
2018-08-10T14:52:44.826Z,33.58
2018-08-10T14:55:17.650Z,33.30
2018-08-10T14:57:47.000Z,33.88
2018-08-10T15:00:19.676Z,34.14
2018-08-10T15:02:49.449Z,34.57
2018-08-10T15:05:18.968Z,35.04
2018-08-10T15:07:48.328Z,34.84
2018-08-10T15:10:18.269Z,34.33
2018-08-10T15:12:48.176Z,34.05
2018-08-10T15:15:19.465Z,35.15
2018-08-10T15:17:49.139Z,34.94
2018-08-10T15:20:20.404Z,34.23
2018-08-10T15:22:49.792Z,34.20
2018-08-10T15:25:19.144Z,35.16
2018-08-10T15:27:48.479Z,35.17
2018-08-10T15:30:18.811Z,35.03
2018-08-10T15:32:48.156Z,34.26
2018-08-10T15:35:17.920Z,34.67
2018-08-10T15:37:47.270Z,36.44
2018-08-10T15:40:18.476Z,35.22
2018-08-10T15:42:47.844Z,34.95
2018-08-10T15:45:17.892Z,36.25
2018-08-10T15:47:47.589Z,35.08
2018-08-10T15:50:16.988Z,34.69
2018-08-10T15:52:46.715Z,33.40
2018-08-10T15:55:16.294Z,30.84
2018-08-10T15:57:45.667Z,30.05
2018-08-10T16:00:20.577Z,29.92
2018-08-10T16:02:50.163Z,31.41
2018-08-10T16:05:19.531Z,31.69
2018-08-10T16:07:48.892Z,32.03
2018-08-10T16:10:18.228Z,31.60
2018-08-10T16:12:47.589Z,33.50
2018-08-10T16:15:18.797Z,33.22
2018-08-10T16:17:48.174Z,33.85
2018-08-10T16:20:21.085Z,35.20
2018-08-10T16:22:50.698Z,35.90
2018-08-10T16:25:20.071Z,36.59
2018-08-10T16:27:49.482Z,36.82
2018-08-10T16:30:18.847Z,36.78
2018-08-10T16:32:48.192Z,37.36
2018-08-10T16:35:17.563Z,36.77
2018-08-10T16:37:47.627Z,36.47
2018-08-10T16:40:18.400Z,37.96
2018-08-10T16:42:47.781Z,39.51
2018-08-10T16:45:17.123Z,38.09
2018-08-10T16:47:46.476Z,38.42
2018-08-10T16:50:17.601Z,38.08
2018-08-10T16:52:47.141Z,37.17
2018-08-10T16:55:17.944Z,38.96
2018-08-10T16:57:47.965Z,38.99
2018-08-10T17:00:19.328Z,40.41
2018-08-10T17:02:49.020Z,39.71
2018-08-10T17:05:18.437Z,40.17
2018-08-10T17:07:47.748Z,39.91
2018-08-10T17:10:17.099Z,41.07
2018-08-10T17:12:46.841Z,41.50
2018-08-10T17:15:18.301Z,41.13
2018-08-10T17:17:48.304Z,40.81
2018-08-10T17:20:18.217Z,40.69
2018-08-10T17:22:47.625Z,40.48
2018-08-10T17:25:19.223Z,40.19
2018-08-10T17:27:48.651Z,40.11
2018-08-10T17:30:19.295Z,39.98
2018-08-10T17:32:48.660Z,40.79
2018-08-10T17:35:18.195Z,40.54
2018-08-10T17:37:47.946Z,41.15
2018-08-10T17:40:17.285Z,41.21
2018-08-10T17:42:46.636Z,40.14
2018-08-10T17:45:17.150Z,41.65
2018-08-10T17:47:46.520Z,41.84
2018-08-10T17:50:19.439Z,43.74
2018-08-10T17:52:51.204Z,44.59
2018-08-10T17:55:20.807Z,45.65
2018-08-10T17:57:50.171Z,45.80
2018-08-10T18:00:26.365Z,44.99
2018-08-10T18:02:55.711Z,47.00
2018-08-10T18:05:26.509Z,46.04
2018-08-10T18:08:26.619Z,45.50
2018-08-10T18:10:55.973Z,46.26
2018-08-10T18:13:25.327Z,47.46
2018-08-10T18:15:54.695Z,48.40
2018-08-10T18:18:24.047Z,48.03
2018-08-10T18:20:53.387Z,49.07
2018-08-10T18:23:22.785Z,48.57
2018-08-10T18:25:52.125Z,48.34
2018-08-10T18:28:21.500Z,47.90
2018-08-10T18:30:50.859Z,47.63
2018-08-10T18:33:20.352Z,46.93
2018-08-10T18:35:49.712Z,49.37
2018-08-10T18:38:19.069Z,48.56
2018-08-10T18:40:48.536Z,48.35
2018-08-10T18:43:17.881Z,49.28
2018-08-10T18:45:47.247Z,48.47
2018-08-10T18:48:16.627Z,47.70
2018-08-10T18:50:46.022Z,48.81
2018-08-10T18:53:15.344Z,49.99
2018-08-10T18:55:44.715Z,50.35
2018-08-10T18:58:14.052Z,50.46
2018-08-10T19:00:43.462Z,50.79
2018-08-10T19:03:12.831Z,50.91
2018-08-10T19:05:42.543Z,50.85
2018-08-10T19:08:12.027Z,51.66
2018-08-10T19:10:41.414Z,51.49
2018-08-10T19:13:10.748Z,53.34
2018-08-10T19:15:40.108Z,52.83
2018-08-10T19:18:09.583Z,53.48
2018-08-10T19:20:38.951Z,54.05
2018-08-10T19:23:08.297Z,53.82
2018-08-10T19:25:44.288Z,53.55
2018-08-10T19:28:13.659Z,53.10
2018-08-10T19:30:43.007Z,52.21
2018-08-10T19:33:12.348Z,52.45
2018-08-10T19:35:41.703Z,53.27
2018-08-10T19:38:11.091Z,53.46
2018-08-10T19:40:40.443Z,52.67
2018-08-10T19:43:09.805Z,53.48
2018-08-10T19:45:39.159Z,53.59
2018-08-10T19:48:09.194Z,53.55
2018-08-10T19:50:38.543Z,52.98
2018-08-10T19:53:07.896Z,53.34
2018-08-10T19:55:37.241Z,53.25
2018-08-10T19:58:06.988Z,52.81
2018-08-10T20:00:36.344Z,52.77
2018-08-10T20:03:05.692Z,53.16
2018-08-10T20:05:35.041Z,53.17
2018-08-10T20:08:04.400Z,51.79
2018-08-10T20:10:33.736Z,53.16
2018-08-10T20:13:03.084Z,53.14
2018-08-10T20:15:32.506Z,54.86
2018-08-10T20:18:01.805Z,54.79
2018-08-10T20:20:31.149Z,55.30
2018-08-10T20:23:00.512Z,54.29
2018-08-10T20:25:29.861Z,56.01
2018-08-10T20:27:59.220Z,56.16
2018-08-10T20:30:29.317Z,55.82
2018-08-10T20:32:58.669Z,56.16
2018-08-10T20:35:28.015Z,55.64
2018-08-10T20:37:57.367Z,56.27
2018-08-10T20:40:26.712Z,56.80
2018-08-10T20:42:56.082Z,55.77
2018-08-10T20:45:25.459Z,55.98
2018-08-10T20:47:54.820Z,56.76
2018-08-10T20:50:25.361Z,56.26
2018-08-10T20:52:54.681Z,57.21
2018-08-10T20:55:24.032Z,56.80
2018-08-10T20:57:53.384Z,56.37
2018-08-10T21:00:22.743Z,56.46
2018-08-10T21:02:52.097Z,55.91
2018-08-10T21:05:21.440Z,56.78
2018-08-10T21:07:50.802Z,56.97
2018-08-10T21:10:20.137Z,57.60
2018-08-10T21:12:49.504Z,57.25
2018-08-10T21:15:18.860Z,57.76
2018-08-10T21:17:48.272Z,57.77
2018-08-10T21:20:18.365Z,58.84
2018-08-10T21:22:47.723Z,58.36
2018-08-10T21:25:17.079Z,58.28
2018-08-10T21:27:46.432Z,58.24
2018-08-10T21:30:18.550Z,58.43
2018-08-10T21:32:48.560Z,58.98
2018-08-10T21:35:18.034Z,58.75
2018-08-10T21:37:47.418Z,58.97
2018-08-10T21:40:16.772Z,58.81
2018-08-10T21:42:46.140Z,59.98
2018-08-10T21:45:15.503Z,59.54
2018-08-10T21:47:44.848Z,60.67
2018-08-10T21:50:15.292Z,60.56
2018-08-10T21:52:45.523Z,60.62
2018-08-10T21:55:14.873Z,60.36
2018-08-10T21:57:44.217Z,60.00
2018-08-10T22:00:38.448Z,61.52
2018-08-10T22:03:09.953Z,61.65
2018-08-10T22:05:39.453Z,61.62
2018-08-10T22:08:09.435Z,61.83
2018-08-10T22:10:39.179Z,62.74
2018-08-10T22:13:12.596Z,63.08
2018-08-10T22:15:47.638Z,63.38
2018-08-10T22:18:22.125Z,64.01
2018-08-10T22:20:51.476Z,63.87
2018-08-10T22:23:20.827Z,63.36
2018-08-10T22:25:50.334Z,63.27
2018-08-10T22:28:19.660Z,62.97
2018-08-10T22:30:49.020Z,63.95
2018-08-10T22:33:18.380Z,63.42
2018-08-10T22:35:47.723Z,63.05
2018-08-10T22:38:17.093Z,62.83
2018-08-10T22:40:46.447Z,63.54
2018-08-10T22:43:15.799Z,63.00
2018-08-10T22:45:45.149Z,63.47
2018-08-10T22:48:14.523Z,63.48
2018-08-10T22:50:43.893Z,63.56
2018-08-10T22:53:13.229Z,63.74
2018-08-10T22:55:42.563Z,64.19
2018-08-10T22:58:11.901Z,64.66
2018-08-10T23:00:41.760Z,64.65
2018-08-10T23:03:11.159Z,64.23
2018-08-10T23:05:40.455Z,65.10
2018-08-10T23:08:09.948Z,65.02
2018-08-10T23:10:39.295Z,64.69
2018-08-10T23:13:08.639Z,65.51
2018-08-10T23:15:37.993Z,65.43
2018-08-10T23:18:08.581Z,65.55
2018-08-10T23:20:37.907Z,65.96
2018-08-10T23:23:07.255Z,66.73
2018-08-10T23:25:36.593Z,67.18
2018-08-10T23:28:06.120Z,67.13
2018-08-10T23:30:35.545Z,67.16
2018-08-10T23:33:04.814Z,66.62
2018-08-10T23:35:34.152Z,67.66
2018-08-10T23:38:03.471Z,67.91
2018-08-10T23:40:32.816Z,67.38
2018-08-10T23:43:02.165Z,67.51
2018-08-10T23:45:31.517Z,68.46
2018-08-10T23:48:00.860Z,68.39
2018-08-10T23:50:30.201Z,68.33
2018-08-10T23:52:59.542Z,68.64
2018-08-10T23:55:28.975Z,68.75
2018-08-10T23:57:58.314Z,68.93
